Utica, MN (55979)

5:38 AM CDT on September 18, 2014 (GMT -0500)
Enterprise Valley | Change Station
CLOSE
Current Station
Personal Weather Station
Location: Lewiston, MN
Elevation: 1135 ft
Nearby Weather Stations
Active Advisory: Special Statement

Elev 1135 ft 43.94 °N, 91.86 °W | Updated 14 minutes ago

Partly Cloudy
Partly Cloudy
46.2 °F
Feels Like 46 °F
N
0.0
Wind Variable Wind from NE

Today
High -- | Low -- °F
--% Chance of Precip.
Yesterday
High -- | Low -- °F
Precip. -- in
6:50 AM 7:12 PM
Waning Crescent, 28% visible
Pressure 30.08 in
Visibility 0.5 miles
Clouds Overcast 100 ft
Windchill 46 °F
Dew Point 46 °F
Humidity 99%
Rainfall 0.00 in
Snow Depth Not available.
UV 0 out of 12
Pollen 3.60 out of 12
Air Quality Not available.
Flu Activity Not available.
METAR KONA 181035Z AUTO 12005KT 1/2SM FG OVC001 12/12 A3008 RMK AO2

More Conditions Fewer Conditions

Pressure 30.08 in
Visibility 0.5 miles
Clouds Overcast 100 ft
Windchill 46 °F
Dew Point 46 °F
Humidity 99%
Rainfall 0.00 in
Snow Depth Not available.
UV 0 out of 12
Pollen 3.60 out of 12
Air Quality Not available.
Flu Activity Not available.
METAR KONA 181035Z AUTO 12005KT 1/2SM FG OVC001 12/12 A3008 RMK AO2

More Conditions Fewer Conditions

10-Day Weather Forecast

Almanac

Astronomy

Sep. 18, 2014 Rise Set
Actual Time 6:50 AM CDT 7:12 PM CDT
Civil Twilight 6:21 AM CDT 7:41 PM CDT
Nautical Twilight 5:47 AM CDT 8:15 PM CDT
Astronomical Twilight 5:12 AM CDT 8:50 PM CDT
Moon 1:34 AM CDT 4:11 PM CDT
Length of Visible Light 13h 19m
Length of Day
12h 22m
Tomorrow will be 2m 59s shorter.
Waning Crescent, 28% of the Moon is Illuminated
Today
Waning Crescent
Sep 24
New
Oct 1
First Quarter
Oct 8
Full
Oct 15
Last Quarter

Today's Extremes

State Highs State Lows

Community

WunderPhotos

Upload Photos

1,754,314 photos uploaded!

Nearby

Snow Depth

Station Depth Elevation
No new snow has been reported.

Earthquake Activity

City Distance Mag. Time & Date
No recent earthquake activity has been reported nearby.
Minimum magnitude displayed is 2.5.

Coastal Water Temperatures

Place Temperature
No Stations Reporting

Nearby Weather Stations